Time;durP1;ratioP1;P1;durP2;ratioP2;P2;SDS_P1;SDS_P2;PMS_P1;PMS_P2;Temp;Humidity;BMP_temperature;BMP_pressure;BME280_temperature;BME280_humidity;BME280_pressure;Samples;Min_cycle;Max_cycle;Signal;HPM_P1;HPM_P2
2021/08/07 00:00:09;;;;;;;;;;;;;;;14.72;100.00;95336.78;1041073;28;19921;-44
2021/08/07 00:00:40;;;;;;;;;;;;;;;14.63;100.00;95338.22;1041201;28;20263;-45
2021/08/07 00:01:10;;;;;;;;;;;;;;;14.73;100.00;95333.09;1041267;28;19909;-44
2021/08/07 00:01:40;;;;;;;;;;;;;;;14.67;100.00;95334.84;1041068;28;20350;-44
2021/08/07 00:02:11;;;;;;;;;;;;;;;14.64;100.00;95331.88;1041160;28;19913;-44
2021/08/07 00:02:41;;;;;;;;;;;;;;;14.66;100.00;95329.78;1041167;28;19919;-44
2021/08/07 00:03:11;;;;;;;;;;;;;;;14.68;100.00;95328.53;1041358;28;19920;-43
2021/08/07 00:03:42;;;;;;;;;;;;;;;14.70;100.00;95331.72;1041184;28;19915;-44
2021/08/07 00:04:12;;;;;;;;;;;;;;;14.68;100.00;95320.56;1041122;28;19964;-45
2021/08/07 00:04:42;;;;;;;;;;;;;;;14.66;100.00;95327.94;1041145;28;19920;-43
2021/08/07 00:05:12;;;;;;;;;;;;;;;14.72;100.00;95318.22;1041282;28;19909;-44
2021/08/07 00:05:43;;;;;;;;;;;;;;;14.72;99.38;95323.53;1041098;28;19919;-44
2021/08/07 00:06:13;;;;;;;;;;;;;;;14.73;100.00;95320.63;1041469;28;19905;-43
2021/08/07 00:06:43;;;;;;;;;;;;;;;14.79;99.85;95324.19;1041391;28;20011;-44
2021/08/07 00:07:14;;;;;;;;;;;;;;;14.86;98.94;95326.66;1041284;28;19909;-46
2021/08/07 00:07:44;;;;;;;;;;;;;;;14.85;99.26;95320.56;1041155;28;19920;-44
2021/08/07 00:08:14;;;;;;;;;;;;;;;14.81;99.26;95324.72;1036997;28;20327;-46
2021/08/07 00:08:45;;;;;;;;;;;;;;;14.86;99.22;95324.00;1036677;28;20032;-46
2021/08/07 00:09:15;;;;;;;;;;;;;;;14.78;98.82;95322.56;1032755;28;19918;-43
2021/08/07 00:09:45;;;;;;;;;;;;;;;14.78;98.43;95324.44;1028718;28;19914;-43
2021/08/07 00:10:17;;;;;;;;;;;;;;;14.77;98.32;95322.81;1028731;28;19921;-43
2021/08/07 00:10:47;;;;;;;;;;;;;;;14.78;98.80;95325.22;1032809;28;19929;-43
2021/08/07 00:11:17;;;;;;;;;;;;;;;14.78;98.34;95322.56;1036972;28;19952;-44
2021/08/07 00:11:48;;;;;;;;;;;;;;;14.73;98.99;95328.59;1041375;28;19913;-43
2021/08/07 00:12:18;;;;;;;;;;;;;;;14.74;98.79;95322.25;1041111;28;19928;-44
2021/08/07 00:12:48;;;;;;;;;;;;;;;14.67;99.40;95320.81;1036751;28;19918;-45
2021/08/07 00:13:19;;;;;;;;;;;;;;;14.75;99.93;95328.34;1036661;28;19914;-45
2021/08/07 00:13:49;;;;;;;;;;;;;;;14.83;99.04;95327.13;1036762;28;19964;-44
2021/08/07 00:14:19;;;;;;;;;;;;;;;14.88;99.45;95325.38;1036556;28;19913;-44
2021/08/07 00:14:50;;;;;;;;;;;;;;;14.89;98.88;95324.34;1041141;28;19913;-45
2021/08/07 00:15:20;;;;;;;;;;;;;;;14.96;98.53;95323.38;1040914;28;19920;-43
2021/08/07 00:15:50;;;;;;;;;;;;;;;14.92;99.20;95318.56;1041198;28;19952;-43
2021/08/07 00:16:21;;;;;;;;;;;;;;;14.93;98.78;95322.00;1032742;28;20356;-44
2021/08/07 00:16:51;;;;;;;;;;;;;;;14.95;98.27;95317.25;1032763;28;19913;-42
2021/08/07 00:17:21;;;;;;;;;;;;;;;14.93;97.80;95319.34;1032577;28;19902;-44
2021/08/07 00:17:52;;;;;;;;;;;;;;;14.96;97.48;95328.69;1028738;28;19906;-43
2021/08/07 00:18:22;;;;;;;;;;;;;;;14.90;97.60;95317.97;1036818;28;19916;-45
2021/08/07 00:18:52;;;;;;;;;;;;;;;14.90;97.89;95320.63;1036935;28;19912;-43
2021/08/07 00:19:23;;;;;;;;;;;;;;;14.88;97.74;95322.72;1036613;28;19989;-43
2021/08/07 00:19:53;;;;;;;;;;;;;;;14.93;98.14;95322.00;1036721;28;20318;-43
2021/08/07 00:20:23;;;;;;;;;;;;;;;14.90;97.96;95322.50;1036752;28;19917;-45
2021/08/07 00:20:54;;;;;;;;;;;;;;;14.90;98.05;95319.84;1032697;28;20402;-43
2021/08/07 00:21:24;;;;;;;;;;;;;;;14.84;97.54;95318.94;1036623;28;19948;-44
2021/08/07 00:21:54;;;;;;;;;;;;;;;14.82;97.92;95318.41;1032546;28;19914;-44
2021/08/07 00:22:24;;;;;;;;;;;;;;;14.78;98.20;95322.56;1032645;28;19929;-46
2021/08/07 00:22:55;;;;;;;;;;;;;;;14.79;98.21;95316.22;1036700;28;19906;-44
2021/08/07 00:23:25;;;;;;;;;;;;;;;14.77;98.09;95320.94;1036649;28;19941;-43
2021/08/07 00:23:55;;;;;;;;;;;;;;;14.77;97.85;95325.47;1041222;28;19975;-43
2021/08/07 00:24:26;;;;;;;;;;;;;;;14.78;98.19;95322.56;1040672;28;19921;-43
2021/08/07 00:24:56;;;;;;;;;;;;;;;14.81;98.25;95318.66;1039797;28;19909;-46
2021/08/07 00:25:26;;;;;;;;;;;;;;;14.82;98.05;95321.06;1041136;28;20278;-43
2021/08/07 00:25:57;;;;;;;;;;;;;;;14.80;98.73;95314.38;1041083;28;20370;-43
2021/08/07 00:26:27;;;;;;;;;;;;;;;14.78;98.69;95319.91;1041174;28;19909;-43
2021/08/07 00:26:57;;;;;;;;;;;;;;;14.75;98.88;95318.53;1036528;28;19910;-43
2021/08/07 00:27:27;;;;;;;;;;;;;;;14.72;98.56;95313.72;1036627;28;19913;-44
2021/08/07 00:27:58;;;;;;;;;;;;;;;14.74;98.47;95316.97;1036725;28;19916;-43
2021/08/07 00:28:28;;;;;;;;;;;;;;;14.81;98.67;95310.69;1036799;28;20329;-43
2021/08/07 00:28:58;;;;;;;;;;;;;;;14.86;98.99;95321.34;1040920;28;19909;-42
2021/08/07 00:29:34;;;;;;;;;;;;;;;14.84;98.06;95312.84;1041159;28;19909;-42
2021/08/07 00:30:05;;;;;;;;;;;;;;;14.84;98.43;95318.16;1041095;28;20426;-46
2021/08/07 00:30:35;;;;;;;;;;;;;;;14.87;98.38;95321.13;1041108;28;19909;-43
2021/08/07 00:31:05;;;;;;;;;;;;;;;14.88;98.11;95321.94;1040945;28;19905;-44
2021/08/07 00:31:36;;;;;;;;;;;;;;;14.83;98.07;95321.84;1041012;28;20323;-43
2021/08/07 00:32:06;;;;;;;;;;;;;;;14.89;97.88;95315.56;1041099;28;19909;-45
2021/08/07 00:32:37;;;;;;;;;;;;;;;14.92;97.73;95317.75;1041155;28;19909;-43
2021/08/07 00:33:07;;;;;;;;;;;;;;;14.88;97.52;95322.72;1040971;28;19905;-44
2021/08/07 00:33:37;;;;;;;;;;;;;;;14.84;97.74;95321.59;1041067;28;19914;-43
2021/08/07 00:34:07;;;;;;;;;;;;;;;14.81;97.41;95316.78;1041140;28;20353;-44
2021/08/07 00:34:38;;;;;;;;;;;;;;;14.82;97.31;95317.56;1040872;28;19909;-45
2021/08/07 00:35:08;;;;;;;;;;;;;;;14.81;97.76;95314.13;1040998;28;19912;-42
2021/08/07 00:35:39;;;;;;;;;;;;;;;14.79;97.68;95312.75;1036671;28;19906;-42
2021/08/07 00:36:09;;;;;;;;;;;;;;;14.77;97.89;95320.16;1036707;28;19996;-43
2021/08/07 00:36:39;;;;;;;;;;;;;;;14.79;98.49;95316.22;1036672;28;19931;-43
2021/08/07 00:37:10;;;;;;;;;;;;;;;14.85;98.48;95315.25;1036637;28;19909;-46
2021/08/07 00:37:40;;;;;;;;;;;;;;;14.92;97.78;95312.44;1041074;28;19910;-45
2021/08/07 00:38:20;;;;;;;;;;;;;;;14.92;97.92;95312.44;1041140;28;19929;-44
2021/08/07 00:38:50;;;;;;;;;;;;;;;14.92;97.58;95299.19;1039825;28;19909;-46
2021/08/07 00:39:20;;;;;;;;;;;;;;;14.91;97.75;95300.25;1041027;28;20300;-43
2021/08/07 00:39:51;;;;;;;;;;;;;;;14.93;98.04;95303.44;1041016;28;19970;-43
2021/08/07 00:40:21;;;;;;;;;;;;;;;14.93;97.88;95298.16;1041100;28;19905;-44
2021/08/07 00:40:51;;;;;;;;;;;;;;;14.87;98.32;95301.78;1040827;28;19909;-44
2021/08/07 00:41:22;;;;;;;;;;;;;;;14.86;99.10;95293.00;1041012;28;19911;-43
2021/08/07 00:41:52;;;;;;;;;;;;;;;14.83;98.31;95292.69;1040921;28;19905;-44
2021/08/07 00:42:22;;;;;;;;;;;;;;;14.90;98.12;95291.47;1040979;28;20354;-43
2021/08/07 00:42:53;;;;;;;;;;;;;;;14.84;97.86;95286.34;1041029;28;19916;-42
2021/08/07 00:43:23;;;;;;;;;;;;;;;14.87;97.96;95286.66;1040961;28;19913;-43
2021/08/07 00:43:53;;;;;;;;;;;;;;;14.94;97.86;95281.22;1040962;28;20003;-43
2021/08/07 00:44:24;;;;;;;;;;;;;;;14.95;97.57;95282.00;1040853;28;19905;-44
2021/08/07 00:44:54;;;;;;;;;;;;;;;14.96;97.46;95279.13;1036529;28;20342;-43
2021/08/07 00:45:24;;;;;;;;;;;;;;;14.92;97.11;95278.81;1036714;28;20309;-44
2021/08/07 00:45:55;;;;;;;;;;;;;;;14.90;96.77;95283.53;1032609;28;19913;-43
2021/08/07 00:46:25;;;;;;;;;;;;;;;14.89;97.07;95278.47;1032710;28;20274;-44
2021/08/07 00:46:55;;;;;;;;;;;;;;;14.89;97.69;95276.66;1036417;28;19916;-43
2021/08/07 00:47:25;;;;;;;;;;;;;;;14.83;97.99;95279.44;1036556;28;20397;-45
2021/08/07 00:47:56;;;;;;;;;;;;;;;14.76;98.00;95282.28;1036660;28;19905;-42
2021/08/07 00:48:26;;;;;;;;;;;;;;;14.72;98.33;95286.44;1036714;28;19913;-44
2021/08/07 00:48:56;;;;;;;;;;;;;;;14.74;98.47;95287.00;1040852;28;20068;-43
2021/08/07 00:49:27;;;;;;;;;;;;;;;14.73;98.12;95286.19;1041027;28;19906;-43
2021/08/07 00:49:57;;;;;;;;;;;;;;;14.72;98.00;95281.13;1040960;28;19910;-46
2021/08/07 00:50:27;;;;;;;;;;;;;;;14.73;98.28;95283.53;1040971;28;19901;-44
2021/08/07 00:50:57;;;;;;;;;;;;;;;14.74;98.30;95284.34;1041021;28;19905;-43
2021/08/07 00:51:28;;;;;;;;;;;;;;;14.81;98.19;95289.50;1036529;28;19906;-43
2021/08/07 00:51:58;;;;;;;;;;;;;;;14.80;97.73;95280.72;1036521;28;19933;-43
2021/08/07 00:52:28;;;;;;;;;;;;;;;14.79;98.04;95286.25;1036546;28;19912;-43
2021/08/07 00:52:59;;;;;;;;;;;;;;;14.79;98.56;95280.97;1036615;28;20413;-45
2021/08/07 00:53:29;;;;;;;;;;;;;;;14.77;97.68;95283.84;1036499;28;19979;-43
2021/08/07 00:53:59;;;;;;;;;;;;;;;14.74;97.78;95282.50;1036653;28;19906;-43
2021/08/07 00:54:30;;;;;;;;;;;;;;;14.70;98.35;95273.44;1036532;28;20738;-43
2021/08/07 00:55:00;;;;;;;;;;;;;;;14.67;98.97;95275.78;1032410;28;19937;-44
2021/08/07 00:55:30;;;;;;;;;;;;;;;14.68;99.11;95269.41;1036630;28;19901;-44
2021/08/07 00:56:01;;;;;;;;;;;;;;;14.74;98.65;95269.25;1036547;28;20015;-43
2021/08/07 00:56:31;;;;;;;;;;;;;;;14.73;99.01;95266.84;1036663;28;19906;-43
2021/08/07 00:57:01;;;;;;;;;;;;;;;14.70;98.94;95264.69;1040965;28;20207;-43
2021/08/07 00:57:32;;;;;;;;;;;;;;;14.72;98.74;95267.88;1040839;28;19901;-43
2021/08/07 00:58:02;;;;;;;;;;;;;;;14.72;98.61;95266.03;1040992;28;19959;-44
2021/08/07 00:58:32;;;;;;;;;;;;;;;14.75;99.07;95264.75;1041037;28;20251;-46
2021/08/07 00:59:03;;;;;;;;;;;;;;;14.73;98.91;95267.66;1040802;28;19952;-43
2021/08/07 00:59:33;;;;;;;;;;;;;;;14.75;98.68;95262.91;1041058;28;19955;-43
2021/08/07 01:00:04;;;;;;;;;;;;;;;14.76;98.39;95266.38;1040996;28;20341;-45
2021/08/07 01:00:34;;;;;;;;;;;;;;;14.75;98.44;95264.75;1036435;28;19913;-45
2021/08/07 01:01:05;;;;;;;;;;;;;;;14.71;97.47;95263.63;1036602;28;19917;-43
2021/08/07 01:01:43;;;;;;;;;;;;;;;14.71;96.65;95259.16;1032707;28;19946;-44
2021/08/07 01:02:14;;;;;;;;;;;;;;;14.71;96.41;95253.84;1033756;28;20274;-43
2021/08/07 01:02:47;;;;;;;;;;;;;;;14.72;96.26;95254.66;1036664;28;19909;-43
2021/08/07 01:03:32;;;;;;;;;;;;;;;14.72;96.64;95255.44;1034113;28;19913;-43
2021/08/07 01:04:03;;;;;;;;;;;;;;;14.75;96.83;95252.31;1036663;28;19996;-43
2021/08/07 01:04:36;;;;;;;;;;;;;;;14.75;97.25;95254.16;1036559;28;19914;-43
2021/08/07 01:05:09;;;;;;;;;;;;;;;14.70;97.17;95251.44;1039024;28;20031;-44
2021/08/07 01:05:42;;;;;;;;;;;;;;;14.72;96.73;95254.66;1040710;28;19909;-44
2021/08/07 01:06:15;;;;;;;;;;;;;;;14.78;97.32;95255.53;1040667;28;19924;-44
2021/08/07 01:06:48;;;;;;;;;;;;;;;14.75;97.38;95248.84;1040825;28;20427;-43
2021/08/07 01:07:47;;;;;;;;;;;;;;;14.76;98.08;95255.78;1036783;28;19914;-43
2021/08/07 01:08:18;;;;;;;;;;;;;;;14.75;97.51;95249.66;1028639;28;19947;-43
2021/08/07 01:08:55;;;;;;;;;;;;;;;14.78;97.59;95247.56;1036416;28;19918;-43
2021/08/07 01:09:34;;;;;;;;;;;;;;;14.77;96.95;95241.47;1041001;28;19917;-43
2021/08/07 01:10:14;;;;;;;;;;;;;;;14.80;96.46;95248.13;1040997;28;19917;-43
2021/08/07 01:11:03;;;;;;;;;;;;;;;14.79;96.40;95242.03;1041137;28;19913;-45
2021/08/07 01:11:36;;;;;;;;;;;;;;;14.79;96.80;95239.38;1041022;28;19913;-43
2021/08/07 01:12:18;;;;;;;;;;;;;;;14.85;97.74;95237.59;1032679;28;19965;-43
2021/08/07 01:12:50;;;;;;;;;;;;;;;14.95;97.36;95242.25;1032533;28;19924;-43
2021/08/07 01:13:25;;;;;;;;;;;;;;;14.88;97.06;95242.44;1032628;28;20043;-43
2021/08/07 01:13:58;;;;;;;;;;;;;;;14.85;97.13;95241.06;1031074;28;19918;-43
2021/08/07 01:14:32;;;;;;;;;;;;;;;14.85;97.32;95243.72;1032357;28;19957;-44
2021/08/07 01:15:02;;;;;;;;;;;;;;;14.82;96.60;95249.50;1034095;28;19973;-44
2021/08/07 01:15:32;;;;;;;;;;;;;;;14.84;97.00;95250.06;1037361;28;20382;-43
2021/08/07 01:16:07;;;;;;;;;;;;;;;14.89;97.17;95250.13;1036733;28;19913;-43
2021/08/07 01:16:38;;;;;;;;;;;;;;;14.92;97.77;95260.25;1036845;28;19945;-43
2021/08/07 01:17:14;;;;;;;;;;;;;;;14.89;96.64;95257.28;1036558;28;20021;-43
2021/08/07 01:17:44;;;;;;;;;;;;;;;14.86;96.91;95263.84;1038216;28;20239;-45
2021/08/07 01:18:15;;;;;;;;;;;;;;;14.81;97.21;95260.34;1040695;28;19909;-43
2021/08/07 01:18:46;;;;;;;;;;;;;;;14.84;98.42;95254.56;1036711;28;19906;-43
2021/08/07 01:19:17;;;;;;;;;;;;;;;14.75;98.47;95256.81;1036589;28;19909;-43
2021/08/07 01:19:47;;;;;;;;;;;;;;;14.74;99.04;95257.84;1036659;28;19964;-44
2021/08/07 01:20:18;;;;;;;;;;;;;;;14.68;98.58;95261.47;1036717;28;19918;-43
2021/08/07 01:20:49;;;;;;;;;;;;;;;14.65;99.59;95254.81;1041080;28;19913;-44
2021/08/07 01:21:20;;;;;;;;;;;;;;;14.69;99.28;95255.13;1040913;28;20476;-42
2021/08/07 01:21:54;;;;;;;;;;;;;;;14.76;99.54;95255.78;1036595;28;20028;-43
2021/08/07 01:22:27;;;;;;;;;;;;;;;14.78;98.78;95266.91;1032779;28;19917;-43
2021/08/07 01:23:00;;;;;;;;;;;;;;;14.78;98.45;95258.19;1032559;28;19977;-42
2021/08/07 01:23:40;;;;;;;;;;;;;;;14.77;98.59;95257.34;1028612;28;20335;-43
2021/08/07 01:24:34;;;;;;;;;;;;;;;14.78;98.15;95260.81;1026372;28;20005;-46
2021/08/07 01:25:05;;;;;;;;;;;;;;;14.69;99.16;95260.44;1032833;28;20382;-43
2021/08/07 01:26:00;;;;;;;;;;;;;;;14.68;99.30;95253.50;1032779;28;19918;-43
2021/08/07 01:26:48;;;;;;;;;;;;;;;14.70;98.83;95260.19;1036667;28;19921;-43
2021/08/07 01:27:21;;;;;;;;;;;;;;;14.71;98.51;95258.31;1040771;28;20396;-43
2021/08/07 01:27:51;;;;;;;;;;;;;;;14.71;98.24;95264.44;1040932;28;20362;-43
2021/08/07 01:28:22;;;;;;;;;;;;;;;14.70;98.23;95268.13;1037958;28;20100;-44
2021/08/07 01:28:52;;;;;;;;;;;;;;;14.68;98.69;95264.94;1036615;28;19996;-44
2021/08/07 01:29:22;;;;;;;;;;;;;;;14.69;98.64;95266.50;1036600;28;20103;-44
2021/08/07 01:29:53;;;;;;;;;;;;;;;14.70;98.54;95267.34;1032749;28;19914;-42
2021/08/07 01:30:24;;;;;;;;;;;;;;;14.70;98.38;95264.69;1036768;28;20398;-42
2021/08/07 01:30:54;;;;;;;;;;;;;;;14.72;98.36;95259.94;1032614;28;19945;-42
2021/08/07 01:31:24;;;;;;;;;;;;;;;14.73;98.05;95264.22;1032867;28;19975;-43
2021/08/07 01:31:55;;;;;;;;;;;;;;;14.74;98.21;95257.84;1032754;28;20020;-42
2021/08/07 01:32:25;;;;;;;;;;;;;;;14.79;98.22;95262.41;1032703;28;20327;-43
2021/08/07 01:32:56;;;;;;;;;;;;;;;14.76;97.97;95258.41;1036678;28;19917;-42
2021/08/07 01:33:26;;;;;;;;;;;;;;;14.73;98.02;95250.97;1036727;28;19920;-42
2021/08/07 01:33:56;;;;;;;;;;;;;;;14.70;98.75;95246.16;1036625;28;20274;-43
2021/08/07 01:34:27;;;;;;;;;;;;;;;14.69;98.57;95249.81;1036362;28;19913;-43
2021/08/07 01:34:58;;;;;;;;;;;;;;;14.71;98.17;95247.72;1036554;28;19914;-43
2021/08/07 01:35:28;;;;;;;;;;;;;;;14.69;97.68;95247.19;1036599;28;19914;-42
2021/08/07 01:35:58;;;;;;;;;;;;;;;14.70;97.88;95246.16;1040758;28;19921;-42
2021/08/07 01:36:30;;;;;;;;;;;;;;;14.68;98.01;95245.56;1036527;28;19913;-42
2021/08/07 01:37:00;;;;;;;;;;;;;;;14.68;98.27;95246.38;1036480;28;19953;-42
2021/08/07 01:37:30;;;;;;;;;;;;;;;14.66;98.24;95239.72;1036587;28;19910;-42
2021/08/07 01:38:01;;;;;;;;;;;;;;;14.66;98.72;95240.50;1036787;28;19910;-43
2021/08/07 01:38:31;;;;;;;;;;;;;;;14.70;99.18;95243.50;1036578;28;19921;-43
2021/08/07 01:39:01;;;;;;;;;;;;;;;14.67;99.14;95246.63;1036499;28;20366;-42
2021/08/07 01:39:32;;;;;;;;;;;;;;;14.67;99.22;95249.28;1036715;28;20397;-44
2021/08/07 01:40:02;;;;;;;;;;;;;;;14.67;98.61;95247.41;1036451;28;19914;-43
2021/08/07 01:40:32;;;;;;;;;;;;;;;14.65;99.05;95248.69;1040985;28;19911;-42
2021/08/07 01:41:03;;;;;;;;;;;;;;;14.66;99.08;95250.31;1040956;28;19912;-44
2021/08/07 01:41:34;;;;;;;;;;;;;;;14.64;98.74;95244.47;1041013;28;19905;-42
2021/08/07 01:42:04;;;;;;;;;;;;;;;14.62;99.11;95249.19;1040911;28;19971;-43
2021/08/07 01:42:34;;;;;;;;;;;;;;;14.62;99.84;95243.88;1041084;28;20358;-43
2021/08/07 01:43:05;;;;;;;;;;;;;;;14.57;100.00;95245.41;1041014;28;19914;-42
2021/08/07 01:43:35;;;;;;;;;;;;;;;14.65;100.00;95240.75;1036538;28;19956;-43
2021/08/07 01:44:05;;;;;;;;;;;;;;;14.71;100.00;95250.38;1036663;28;19909;-42
2021/08/07 01:44:35;;;;;;;;;;;;;;;14.66;100.00;95250.31;1036520;28;20362;-42
2021/08/07 01:45:06;;;;;;;;;;;;;;;14.71;100.00;95242.44;1036645;28;19909;-42
2021/08/07 01:45:37;;;;;;;;;;;;;;;14.71;100.00;95243.25;1041002;28;20000;-43
2021/08/07 01:46:07;;;;;;;;;;;;;;;14.66;99.52;95239.72;1040883;28;20050;-42
2021/08/07 01:46:46;;;;;;;;;;;;;;;14.65;99.57;95238.09;1041233;28;19905;-43
2021/08/07 01:47:33;;;;;;;;;;;;;;;14.65;98.98;95232.81;1036718;28;19914;-43
2021/08/07 01:48:08;;;;;;;;;;;;;;;14.51;99.76;95238.41;1036754;28;19960;-42
2021/08/07 01:48:45;;;;;;;;;;;;;;;14.51;100.00;95240.25;1036862;28;19905;-43
2021/08/07 01:49:16;;;;;;;;;;;;;;;14.51;100.00;95249.00;1040386;28;20315;-44
2021/08/07 01:49:48;;;;;;;;;;;;;;;14.44;100.00;95248.38;1039452;28;19909;-42
2021/08/07 01:50:22;;;;;;;;;;;;;;;14.41;100.00;95259.44;1032601;28;19932;-43
2021/08/07 01:50:54;;;;;;;;;;;;;;;14.42;100.00;95255.72;1033585;28;19909;-42
2021/08/07 01:51:25;;;;;;;;;;;;;;;14.40;100.00;95263.91;1036540;28;19963;-43
2021/08/07 01:51:59;;;;;;;;;;;;;;;14.41;100.00;95259.44;1036833;28;19909;-42
2021/08/07 01:52:30;;;;;;;;;;;;;;;14.40;100.00;95258.63;1037489;28;19909;-43
2021/08/07 01:53:02;;;;;;;;;;;;;;;14.34;100.00;95259.59;1040625;28;20350;-42
2021/08/07 01:53:33;;;;;;;;;;;;;;;14.37;100.00;95260.97;1040286;28;20333;-42
2021/08/07 01:54:03;;;;;;;;;;;;;;;14.31;100.00;95260.06;1040812;28;19909;-43
2021/08/07 01:54:35;;;;;;;;;;;;;;;14.32;100.00;95256.38;1036402;28;19997;-42
2021/08/07 01:55:08;;;;;;;;;;;;;;;14.34;100.00;95256.94;1036592;28;19929;-42
2021/08/07 01:55:45;;;;;;;;;;;;;;;14.35;100.00;95255.09;1036742;28;20346;-43
2021/08/07 01:56:22;;;;;;;;;;;;;;;14.31;100.00;95253.97;1038337;28;19951;-42
2021/08/07 01:56:52;;;;;;;;;;;;;;;14.33;100.00;95252.69;1038537;28;19909;-43
2021/08/07 01:57:22;;;;;;;;;;;;;;;14.34;100.00;95248.19;1032627;28;20287;-42
2021/08/07 01:57:54;;;;;;;;;;;;;;;14.33;100.00;95250.06;1033470;28;19912;-43
2021/08/07 01:58:32;;;;;;;;;;;;;;;14.36;100.00;95251.41;1032594;28;19965;-44
2021/08/07 01:59:06;;;;;;;;;;;;;;;14.37;100.00;95253.00;1032481;28;20383;-40
2021/08/07 01:59:37;;;;;;;;;;;;;;;14.36;100.00;95246.94;1034223;28;19910;-41
2021/08/07 02:00:12;;;;;;;;;;;;;;;14.34;100.00;95254.28;1033952;28;19934;-42
2021/08/07 02:00:42;;;;;;;;;;;;;;;14.37;100.00;95251.16;1036640;28;19936;-42
2021/08/07 02:01:14;;;;;;;;;;;;;;;14.37;100.00;95248.50;1036394;28;19924;-42
2021/08/07 02:01:45;;;;;;;;;;;;;;;14.32;100.00;95248.44;1037455;28;20024;-42
2021/08/07 02:02:15;;;;;;;;;;;;;;;14.32;100.00;95250.28;1040707;28;19913;-42
2021/08/07 02:02:46;;;;;;;;;;;;;;;14.34;100.00;95242.91;1036672;28;19913;-43
2021/08/07 02:03:17;;;;;;;;;;;;;;;14.38;100.00;95251.97;1036717;28;19914;-42
2021/08/07 02:03:47;;;;;;;;;;;;;;;14.36;100.00;95251.41;1036771;28;19944;-42
2021/08/07 02:04:18;;;;;;;;;;;;;;;14.40;100.00;95244.59;1036634;28;20060;-42
2021/08/07 02:04:49;;;;;;;;;;;;;;;14.49;100.00;95248.44;1036504;28;19917;-42
2021/08/07 02:05:19;;;;;;;;;;;;;;;14.47;100.00;95247.88;1032714;28;19921;-43
2021/08/07 02:05:49;;;;;;;;;;;;;;;14.44;100.00;95248.38;1032844;28;19922;-42
2021/08/07 02:06:20;;;;;;;;;;;;;;;14.41;100.00;95240.91;1028655;28;19925;-42
2021/08/07 02:06:50;;;;;;;;;;;;;;;14.48;100.00;95248.69;1032693;28;19914;-42
2021/08/07 02:07:21;;;;;;;;;;;;;;;14.40;100.00;95247.25;1028656;28;20272;-42
2021/08/07 02:07:51;;;;;;;;;;;;;;;14.40;100.00;95242.72;1028832;28;19997;-42
2021/08/07 02:08:21;;;;;;;;;;;;;;;14.47;100.00;95241.78;1036481;28;19920;-42
2021/08/07 02:08:52;;;;;;;;;;;;;;;14.53;100.00;95241.63;1036514;28;20330;-42
2021/08/07 02:09:22;;;;;;;;;;;;;;;14.62;100.00;95236.75;1040847;28;19914;-43
2021/08/07 02:09:52;;;;;;;;;;;;;;;14.56;100.00;95230.53;1040809;28;19917;-42
2021/08/07 02:10:22;;;;;;;;;;;;;;;14.57;100.00;95232.16;1040974;28;19952;-42
2021/08/07 02:10:53;;;;;;;;;;;;;;;14.57;100.00;95237.47;1041006;28;20258;-42
2021/08/07 02:11:23;;;;;;;;;;;;;;;14.53;100.00;95227.56;1036610;28;20363;-43
2021/08/07 02:11:54;;;;;;;;;;;;;;;14.52;100.00;95226.75;1036629;28;19913;-42
2021/08/07 02:12:24;;;;;;;;;;;;;;;14.52;100.00;95228.63;1036565;28;19918;-42
2021/08/07 02:12:54;;;;;;;;;;;;;;;14.52;100.00;95240.00;1032589;28;19913;-44
2021/08/07 02:13:25;;;;;;;;;;;;;;;14.50;100.00;95236.81;1036607;28;19909;-44
2021/08/07 02:13:55;;;;;;;;;;;;;;;14.50;100.00;95236.81;1032654;28;19918;-42
2021/08/07 02:14:25;;;;;;;;;;;;;;;14.52;100.00;95237.34;1028302;28;19921;-42
2021/08/07 02:14:56;;;;;;;;;;;;;;;14.54;100.00;95231.81;1032676;28;19906;-42
2021/08/07 02:15:26;;;;;;;;;;;;;;;14.54;100.00;95237.91;1032430;28;19917;-43
2021/08/07 02:15:56;;;;;;;;;;;;;;;14.53;100.00;95236.31;1032673;28;19928;-43
2021/08/07 02:16:27;;;;;;;;;;;;;;;14.48;100.00;95238.88;1032560;28;19912;-43
2021/08/07 02:16:58;;;;;;;;;;;;;;;14.44;100.00;95236.94;1032330;28;19909;-44
2021/08/07 02:17:28;;;;;;;;;;;;;;;14.43;100.00;95236.16;1034484;28;19906;-42
2021/08/07 02:17:58;;;;;;;;;;;;;;;14.46;100.00;95240.97;1036640;28;19905;-43
2021/08/07 02:18:29;;;;;;;;;;;;;;;14.46;100.00;95237.53;1040801;28;19905;-43
2021/08/07 02:19:00;;;;;;;;;;;;;;;14.47;100.00;95236.47;1036648;28;19905;-43
2021/08/07 02:19:30;;;;;;;;;;;;;;;14.47;100.00;95239.94;1040438;28;20367;-43
2021/08/07 02:20:00;;;;;;;;;;;;;;;14.50;100.00;95236.81;1040589;28;19952;-43
2021/08/07 02:20:31;;;;;;;;;;;;;;;14.54;100.00;95232.63;1036861;28;19909;-42
2021/08/07 02:21:01;;;;;;;;;;;;;;;14.56;100.00;95233.19;1040796;28;19917;-44
2021/08/07 02:21:31;;;;;;;;;;;;;;;14.51;100.00;95235.75;1040535;28;19986;-43
2021/08/07 02:22:02;;;;;;;;;;;;;;;14.52;100.00;95233.91;1036377;28;19916;-43
2021/08/07 02:22:32;;;;;;;;;;;;;;;14.58;100.00;95231.09;1032553;28;19979;-42
2021/08/07 02:23:02;;;;;;;;;;;;;;;14.61;100.00;95229.06;1032757;28;19933;-43
2021/08/07 02:23:33;;;;;;;;;;;;;;;14.52;100.00;95226.75;1036297;28;20004;-45
2021/08/07 02:24:03;;;;;;;;;;;;;;;14.54;100.00;95226.53;1036589;28;19916;-43
2021/08/07 02:24:34;;;;;;;;;;;;;;;14.59;100.00;95231.91;1036411;28;20402;-42
2021/08/07 02:25:04;;;;;;;;;;;;;;;14.51;100.00;95227.81;1032421;28;19912;-42
2021/08/07 02:25:34;;;;;;;;;;;;;;;14.46;100.00;95225.09;1032402;28;19918;-42
2021/08/07 02:26:05;;;;;;;;;;;;;;;14.48;100.00;95238.09;1040594;28;19956;-43
2021/08/07 02:26:36;;;;;;;;;;;;;;;14.52;100.00;95220.69;1040827;28;20370;-44
2021/08/07 02:27:06;;;;;;;;;;;;;;;14.50;100.00;95226.22;1044810;28;19936;-42
2021/08/07 02:27:36;;;;;;;;;;;;;;;14.48;100.00;95223.00;1043670;28;19912;-43
2021/08/07 02:28:06;;;;;;;;;;;;;;;14.55;100.00;95228.94;1038465;28;19948;-45
2021/08/07 02:28:37;;;;;;;;;;;;;;;14.54;100.00;95222.03;1040137;28;19999;-43
2021/08/07 02:29:07;;;;;;;;;;;;;;;14.57;100.00;95226.84;1040800;28;20054;-44
2021/08/07 02:29:39;;;;;;;;;;;;;;;14.58;100.00;95220.50;1036389;28;19910;-45
2021/08/07 02:30:09;;;;;;;;;;;;;;;14.62;100.00;95220.03;1036543;28;19941;-42
2021/08/07 02:30:40;;;;;;;;;;;;;;;14.58;100.00;95228.44;1036316;28;19913;-43
2021/08/07 02:31:10;;;;;;;;;;;;;;;14.63;100.00;95219.00;1036699;28;19987;-43
2021/08/07 02:31:42;;;;;;;;;;;;;;;14.62;100.00;95220.88;1032374;28;19957;-45
2021/08/07 02:32:12;;;;;;;;;;;;;;;14.58;100.00;95217.06;1032484;28;19953;-44
2021/08/07 02:32:43;;;;;;;;;;;;;;;14.56;100.00;95214.66;1032345;28;19910;-43
2021/08/07 02:33:13;;;;;;;;;;;;;;;14.57;100.00;95212.78;1032731;28;19914;-43
2021/08/07 02:33:44;;;;;;;;;;;;;;;14.53;100.00;95217.78;1036405;28;19910;-43
2021/08/07 02:34:14;;;;;;;;;;;;;;;14.53;100.00;95215.13;1036276;28;19979;-43
2021/08/07 02:34:45;;;;;;;;;;;;;;;14.62;100.00;95212.91;1036336;28;19905;-45
2021/08/07 02:35:15;;;;;;;;;;;;;;;14.59;100.00;95210.72;1036540;28;19918;-45
2021/08/07 02:35:45;;;;;;;;;;;;;;;14.55;100.00;95207.75;1036308;28;19932;-45
2021/08/07 02:36:16;;;;;;;;;;;;;;;14.53;100.00;95215.13;1036460;28;19905;-44
2021/08/07 02:36:46;;;;;;;;;;;;;;;14.50;100.00;95207.69;1036175;28;19945;-44
2021/08/07 02:37:17;;;;;;;;;;;;;;;14.52;100.00;95213.53;1032246;28;19974;-43
2021/08/07 02:37:47;;;;;;;;;;;;;;;14.53;100.00;95215.13;1032382;28;19968;-43
2021/08/07 02:38:18;;;;;;;;;;;;;;;14.53;100.00;95217.78;1036371;28;19914;-44
2021/08/07 02:38:48;;;;;;;;;;;;;;;14.54;100.00;95213.28;1040801;28;19913;-43
2021/08/07 02:39:19;;;;;;;;;;;;;;;14.52;100.00;95213.53;1036360;28;19905;-45
2021/08/07 02:39:49;;;;;;;;;;;;;;;14.46;100.00;95209.19;1036569;28;19917;-44
2021/08/07 02:40:19;;;;;;;;;;;;;;;14.49;100.00;95218.50;1036265;28;19913;-43
2021/08/07 02:40:50;;;;;;;;;;;;;;;14.52;100.00;95216.16;1036497;28;19913;-43
2021/08/07 02:41:20;;;;;;;;;;;;;;;14.53;100.00;95214.31;1040741;28;19913;-44
2021/08/07 02:41:50;;;;;;;;;;;;;;;14.57;100.00;95215.44;1040790;28;20324;-43
2021/08/07 02:42:21;;;;;;;;;;;;;;;14.64;100.00;95215.31;1036191;28;19909;-44
2021/08/07 02:42:51;;;;;;;;;;;;;;;14.62;100.00;95220.88;1036553;28;19913;-43